Time;durP1;ratioP1;P1;durP2;ratioP2;P2;SDS_P1;SDS_P2;PMS_P1;PMS_P2;Temp;Humidity;BMP_temperature;BMP_pressure;BME280_temperature;BME280_humidity;BME280_pressure;Samples;Min_cycle;Max_cycle;Signal;HPM_P1;HPM_P2
2024/01/10 00:00:08;;;;;;;2.83;2.63;;;;;;;3.13;54.32;95566.59;5070011;28;20213;-66
2024/01/10 00:02:35;;;;;;;4.47;3.03;;;;;;;3.45;54.13;95618.16;5069999;28;20202;-65
2024/01/10 00:05:02;;;;;;;5.27;3.47;;;;;;;3.45;54.12;95623.22;5069714;28;20232;-65
2024/01/10 00:07:30;;;;;;;3.30;3.00;;;;;;;3.45;54.13;95624.03;5069974;28;20208;-71
2024/01/10 00:09:59;;;;;;;2.90;2.70;;;;;;;3.47;54.25;95626.53;5070355;28;20186;-68
2024/01/10 00:12:26;;;;;;;3.53;2.93;;;;;;;3.49;54.37;95627.25;5069753;28;20222;-67
2024/01/10 00:14:53;;;;;;;3.67;3.17;;;;;;;3.48;54.49;95626.44;5070192;28;20190;-65
2024/01/10 00:17:20;;;;;;;4.70;2.93;;;;;;;3.42;54.20;95616.63;5069723;28;20198;-63
2024/01/10 00:19:47;;;;;;;4.60;3.17;;;;;;;3.35;54.40;95604.34;5070094;28;20185;-67
2024/01/10 00:22:13;;;;;;;3.33;3.07;;;;;;;3.31;54.22;95600.31;5069866;28;20190;-62
2024/01/10 00:24:40;;;;;;;3.80;2.93;;;;;;;3.39;54.36;95618.47;5070209;28;20316;-64
2024/01/10 00:27:10;;;;;;;3.17;2.73;;;;;;;3.30;54.29;95607.06;5069946;28;20182;-68
2024/01/10 00:29:36;;;;;;;3.60;2.93;;;;;;;3.50;54.14;95636.50;5070395;28;20194;-67
2024/01/10 00:32:03;;;;;;;4.23;3.57;;;;;;;3.42;54.25;95626.72;5069797;28;20189;-67
2024/01/10 00:34:30;;;;;;;3.93;3.27;;;;;;;3.49;54.22;95638.19;5070302;28;20284;-68
2024/01/10 00:36:57;;;;;;;3.40;3.10;;;;;;;3.49;54.37;95638.19;5074832;28;20186;-70
2024/01/10 00:39:23;;;;;;;3.80;3.50;;;;;;;3.22;54.34;95592.25;5074422;28;20193;-69
2024/01/10 00:41:50;;;;;;;8.83;3.63;;;;;;;3.18;54.29;95587.41;5076080;28;20653;-70
2024/01/10 00:44:18;;;;;;;6.17;3.37;;;;;;;3.47;54.15;95637.44;5086087;28;20275;-67
2024/01/10 00:46:47;;;;;;;5.77;3.43;;;;;;;3.50;54.35;95639.84;5087429;28;20255;-65
2024/01/10 00:49:13;;;;;;;3.20;2.90;;;;;;;3.52;54.41;95644.81;5073889;28;20182;-68
2024/01/10 00:51:40;;;;;;;4.17;3.20;;;;;;;3.53;54.50;95644.72;5073979;28;20212;-68
2024/01/10 00:54:07;;;;;;;3.30;3.00;;;;;;;3.53;54.53;95642.22;5073637;28;20190;-67
2024/01/10 00:56:34;;;;;;;4.43;3.20;;;;;;;3.55;54.29;95638.81;5073888;28;20197;-66
2024/01/10 00:59:00;;;;;;;4.03;3.63;;;;;;;3.46;54.50;95625.69;5073573;28;20197;-64
2024/01/10 01:01:29;;;;;;;3.43;3.03;;;;;;;3.57;54.55;95637.84;5073215;28;20186;-63
2024/01/10 01:03:56;;;;;;;4.10;3.20;;;;;;;3.58;54.53;95641.19;5073229;28;20291;-66
2024/01/10 01:06:23;;;;;;;4.57;3.40;;;;;;;3.25;54.36;95589.59;5073679;28;20190;-70
2024/01/10 01:08:50;;;;;;;3.57;3.17;;;;;;;3.59;54.38;95641.13;5074236;28;20577;-63
2024/01/10 01:11:16;;;;;;;3.53;3.23;;;;;;;3.59;54.35;95640.31;5073795;28;20226;-66
2024/01/10 01:13:43;;;;;;;3.67;3.37;;;;;;;3.58;54.30;95636.94;5073299;28;20190;-65
2024/01/10 01:16:11;;;;;;;3.40;3.00;;;;;;;3.51;54.38;95625.47;5072850;28;20186;-65
2024/01/10 01:18:39;;;;;;;3.93;3.50;;;;;;;3.46;54.43;95614.78;5073424;28;20190;-65
2024/01/10 01:21:06;;;;;;;8.50;3.03;;;;;;;3.56;54.44;95632.84;5073038;28;20178;-65
2024/01/10 01:23:32;;;;;;;2.90;2.70;;;;;;;3.57;54.51;95640.34;5073666;28;20182;-62
2024/01/10 01:26:00;;;;;;;4.03;2.90;;;;;;;3.58;54.30;95639.47;5073224;28;20226;-62
2024/01/10 01:28:27;;;;;;;5.00;3.83;;;;;;;3.57;54.55;95630.25;5072885;28;20201;-66
2024/01/10 01:30:54;;;;;;;3.27;2.97;;;;;;;3.58;54.50;95626.00;5072507;28;20190;-66
2024/01/10 01:33:20;;;;;;;3.07;2.77;;;;;;;3.54;54.54;95612.72;5072901;28;20198;-66
2024/01/10 01:35:48;;;;;;;3.77;2.90;;;;;;;3.58;54.45;95616.69;5072888;28;20194;-65
2024/01/10 01:38:15;;;;;;;3.67;3.37;;;;;;;3.15;54.40;95542.91;5080462;28;20522;-67
2024/01/10 01:40:42;;;;;;;3.30;3.00;;;;;;;3.59;54.48;95615.03;5082019;28;20213;-64
2024/01/10 01:43:23;;;;;;;3.97;3.40;;;;;;;3.42;54.40;95593.06;5075065;28;20194;-69
2024/01/10 01:45:52;;;;;;;3.10;2.80;;;;;;;3.59;54.48;95618.38;5073518;28;20218;-63
2024/01/10 01:48:20;;;;;;;3.17;2.87;;;;;;;3.37;54.48;95587.38;5072717;28;20269;-66
2024/01/10 01:50:52;;;;;;;5.13;3.27;;;;;;;3.57;54.62;95611.72;5074514;28;20189;-65
2024/01/10 01:53:20;;;;;;;3.43;3.13;;;;;;;3.57;54.54;95604.13;5075450;28;20186;-65
2024/01/10 01:55:46;;;;;;;6.37;3.50;;;;;;;3.43;54.58;95590.44;5074557;28;20183;-63
2024/01/10 01:58:13;;;;;;;3.57;3.27;;;;;;;3.61;54.58;95611.50;5081409;28;20198;-62
2024/01/10 02:00:41;;;;;;;5.93;3.37;;;;;;;3.61;54.43;95605.63;5075071;28;20385;-66
2024/01/10 02:03:09;;;;;;;3.60;2.70;;;;;;;3.60;54.42;95604.81;5080125;28;20346;-66
2024/01/10 02:05:36;;;;;;;4.23;3.30;;;;;;;3.50;54.45;95586.75;5076002;28;20283;-63
2024/01/10 02:08:05;;;;;;;5.00;3.53;;;;;;;3.58;54.59;95593.94;5074429;28;20187;-64
2024/01/10 02:10:32;;;;;;;5.43;3.47;;;;;;;3.53;54.53;95586.56;5075600;28;20198;-66
2024/01/10 02:12:59;;;;;;;8.40;3.30;;;;;;;3.57;54.52;95596.56;5072183;28;20196;-64
2024/01/10 02:15:26;;;;;;;4.03;3.53;;;;;;;3.59;54.63;95604.91;5074286;28;20198;-66
2024/01/10 02:17:53;;;;;;;5.17;3.40;;;;;;;3.44;54.63;95573.56;5073254;28;20194;-61
2024/01/10 02:20:20;;;;;;;3.37;3.07;;;;;;;3.57;54.55;95594.84;5072179;28;20252;-62
2024/01/10 02:22:50;;;;;;;5.90;3.73;;;;;;;3.58;54.45;95608.28;5072207;28;20217;-64
2024/01/10 02:25:18;;;;;;;4.13;3.60;;;;;;;3.57;54.44;95597.38;5071903;28;20312;-67
2024/01/10 02:27:45;;;;;;;5.53;3.87;;;;;;;3.43;54.50;95574.47;5071662;28;20197;-69
2024/01/10 02:30:12;;;;;;;4.13;3.73;;;;;;;3.56;54.50;95598.28;5071409;28;20193;-66
2024/01/10 02:32:38;;;;;;;4.20;3.57;;;;;;;3.56;54.65;95593.22;5071805;28;20225;-64
2024/01/10 02:35:06;;;;;;;6.73;3.73;;;;;;;3.48;54.67;95580.94;5072150;28;20562;-67
2024/01/10 02:37:33;;;;;;;7.93;3.30;;;;;;;3.25;54.70;95546.63;5071851;28;20198;-70
2024/01/10 02:40:00;;;;;;;5.57;3.53;;;;;;;3.56;54.58;95592.41;5071543;28;20194;-64
2024/01/10 02:42:30;;;;;;;4.60;3.63;;;;;;;3.54;54.60;95595.00;5071659;28;20181;-66
2024/01/10 02:44:56;;;;;;;4.50;3.53;;;;;;;3.52;54.55;95595.06;5071501;28;20240;-67
2024/01/10 02:47:23;;;;;;;4.70;3.33;;;;;;;3.52;54.68;95600.13;5071355;28;20190;-69
2024/01/10 02:49:50;;;;;;;4.17;3.00;;;;;;;3.50;54.65;95598.56;5071406;28;20194;-67
2024/01/10 02:52:19;;;;;;;5.87;3.60;;;;;;;3.48;54.60;95593.56;5071507;28;20198;-67
2024/01/10 02:54:46;;;;;;;5.23;3.47;;;;;;;3.47;54.52;95597.00;5071330;28;20213;-68
2024/01/10 02:57:13;;;;;;;6.30;4.00;;;;;;;3.44;54.67;95594.59;5072215;28;20189;-68
2024/01/10 02:59:41;;;;;;;4.23;3.63;;;;;;;3.43;54.55;95595.50;5070968;28;20190;-65
2024/01/10 03:02:08;;;;;;;5.00;3.43;;;;;;;3.42;54.64;95605.69;5071058;28;20190;-64
2024/01/10 03:04:34;;;;;;;3.83;3.30;;;;;;;3.41;54.72;95604.03;5071000;28;20228;-69
2024/01/10 03:07:01;;;;;;;3.23;2.93;;;;;;;3.19;54.62;95561.25;5071078;28;20208;-67
2024/01/10 03:09:28;;;;;;;3.60;3.17;;;;;;;3.37;54.57;95594.94;5070909;28;20190;-66
2024/01/10 03:11:55;;;;;;;2.80;2.60;;;;;;;3.36;54.56;95588.25;5071215;28;20330;-67
2024/01/10 03:14:22;;;;;;;3.63;3.33;;;;;;;3.33;54.71;95594.31;5070915;28;20198;-68
2024/01/10 03:16:50;;;;;;;3.87;3.30;;;;;;;3.32;54.74;95601.94;5071178;28;20558;-68
2024/01/10 03:19:17;;;;;;;3.40;3.10;;;;;;;3.23;54.68;95593.06;5070859;28;20719;-68
2024/01/10 03:21:43;;;;;;;4.27;3.43;;;;;;;3.23;54.68;95593.88;5070264;28;20182;-65
2024/01/10 03:24:10;;;;;;;4.20;3.50;;;;;;;3.20;54.79;95591.53;5070631;28;20570;-67
2024/01/10 03:26:37;;;;;;;4.03;3.50;;;;;;;3.30;54.72;95607.06;5070904;28;20225;-68
2024/01/10 03:29:04;;;;;;;3.43;3.13;;;;;;;3.11;54.29;95569.22;5070913;28;20662;-70
2024/01/10 03:31:31;;;;;;;4.07;3.20;;;;;;;3.32;54.72;95607.81;5071113;28;20284;-69
2024/01/10 03:34:00;;;;;;;5.00;3.03;;;;;;;3.33;54.84;95608.66;5071059;28;20198;-68
2024/01/10 03:36:26;;;;;;;3.60;2.77;;;;;;;3.20;54.74;95586.47;5070822;28;20191;-69
2024/01/10 03:38:53;;;;;;;4.27;3.30;;;;;;;3.33;54.71;95601.88;5071363;28;20578;-67
2024/01/10 03:41:21;;;;;;;4.00;3.57;;;;;;;3.37;54.81;95603.38;5070018;28;20684;-66
2024/01/10 03:43:48;;;;;;;3.33;3.03;;;;;;;3.39;54.69;95613.41;5071023;28;20190;-68
2024/01/10 03:46:16;;;;;;;4.17;3.40;;;;;;;3.21;54.66;95575.47;5070216;28;20594;-66
2024/01/10 03:48:48;;;;;;;4.27;3.20;;;;;;;3.42;54.66;95598.09;5070871;28;20681;-70
2024/01/10 03:51:17;;;;;;;3.40;2.80;;;;;;;3.44;54.63;95607.25;5071027;28;20202;-70
2024/01/10 03:53:44;;;;;;;3.47;3.17;;;;;;;3.26;54.68;95575.25;5070671;28;20198;-69
2024/01/10 03:56:12;;;;;;;3.57;3.23;;;;;;;3.47;54.55;95607.09;5070435;28;20222;-70
2024/01/10 03:58:39;;;;;;;4.03;3.20;;;;;;;2.80;54.70;95500.75;5070190;28;20605;-67
2024/01/10 04:01:07;;;;;;;4.17;3.30;;;;;;;3.51;54.31;95612.84;5070261;28;20190;-67
2024/01/10 04:03:34;;;;;;;4.33;3.47;;;;;;;3.19;54.33;95569.66;5070063;28;20307;-71
2024/01/10 04:06:01;;;;;;;3.70;3.33;;;;;;;3.53;54.12;95616.09;5070151;28;20811;-69
2024/01/10 04:08:29;;;;;;;3.97;3.13;;;;;;;3.53;54.00;95616.09;5069675;28;20194;-68
2024/01/10 04:10:56;;;;;;;3.60;3.27;;;;;;;3.55;54.28;95618.56;5069654;28;20280;-68
2024/01/10 04:13:23;;;;;;;3.60;3.27;;;;;;;3.51;54.13;95613.66;5069822;28;20190;-68
2024/01/10 04:15:49;;;;;;;5.13;3.43;;;;;;;3.29;54.26;95572.59;5070207;28;20186;-65
2024/01/10 04:18:16;;;;;;;3.47;3.17;;;;;;;3.56;54.11;95612.63;5069690;28;20194;-66
2024/01/10 04:20:43;;;;;;;5.23;3.60;;;;;;;3.44;53.75;95592.06;5070334;28;20186;-63
2024/01/10 04:23:10;;;;;;;4.50;3.40;;;;;;;3.57;53.82;95612.53;5069965;28;20646;-66
2024/01/10 04:25:39;;;;;;;3.87;3.13;;;;;;;3.39;53.71;95586.41;5070473;28;20230;-67
2024/01/10 04:28:06;;;;;;;5.13;3.87;;;;;;;3.58;53.66;95623.47;5070333;28;20189;-66
2024/01/10 04:30:33;;;;;;;4.60;3.90;;;;;;;3.49;53.70;95614.59;5071414;28;20202;-65
2024/01/10 04:33:00;;;;;;;3.30;2.77;;;;;;;3.51;53.60;95622.97;5076975;28;20194;-61
2024/01/10 04:35:26;;;;;;;3.70;3.40;;;;;;;3.60;53.60;95631.81;5076267;28;20545;-65
2024/01/10 04:37:53;;;;;;;3.23;2.93;;;;;;;3.56;53.59;95633.66;5076239;28;20197;-68
2024/01/10 04:40:20;;;;;;;3.27;2.97;;;;;;;3.59;53.34;95640.31;5070003;28;20693;-69
2024/01/10 04:42:49;;;;;;;5.97;3.07;;;;;;;3.61;53.38;95649.44;5071390;28;20183;-63
2024/01/10 04:45:16;;;;;;;5.00;3.40;;;;;;;3.13;53.44;95575.00;5071505;28;20244;-66
2024/01/10 04:47:44;;;;;;;4.67;3.80;;;;;;;3.51;53.37;95636.41;5073488;28;20665;-66
2024/01/10 04:50:11;;;;;;;3.63;3.20;;;;;;;3.62;53.33;95657.84;5073516;28;20194;-66
2024/01/10 04:52:38;;;;;;;4.77;3.50;;;;;;;3.62;53.21;95653.59;5073624;28;20222;-62
2024/01/10 04:55:07;;;;;;;5.80;3.00;;;;;;;3.44;53.17;95627.47;5072832;28;20201;-68
2024/01/10 04:57:34;;;;;;;4.10;3.20;;;;;;;3.63;53.23;95659.50;5071272;28;20229;-64
2024/01/10 05:00:03;;;;;;;5.00;3.30;;;;;;;3.62;53.16;95656.13;5073745;28;20215;-68
2024/01/10 05:02:29;;;;;;;4.27;3.00;;;;;;;3.62;53.04;95657.84;5072377;28;20186;-66
2024/01/10 05:04:56;;;;;;;4.73;3.73;;;;;;;3.62;52.92;95653.59;5070240;28;20202;-65
2024/01/10 05:07:23;;;;;;;4.03;3.50;;;;;;;3.62;53.09;95662.91;5073614;28;20194;-65
2024/01/10 05:09:51;;;;;;;4.00;3.37;;;;;;;3.56;52.84;95653.91;5086594;28;20201;-66
2024/01/10 05:12:18;;;;;;;6.93;3.90;;;;;;;3.40;52.95;95630.22;5077861;28;20280;-64
2024/01/10 05:14:45;;;;;;;4.57;3.70;;;;;;;3.45;52.90;95639.22;5070165;28;20198;-67
2024/01/10 05:17:13;;;;;;;4.13;3.40;;;;;;;3.54;53.28;95653.16;5069805;28;20197;-66
2024/01/10 05:19:40;;;;;;;4.07;3.20;;;;;;;3.60;52.96;95664.69;5060032;28;20658;-64
2024/01/10 05:22:07;;;;;;;4.83;4.07;;;;;;;3.54;53.09;95655.69;5069917;28;20221;-66
2024/01/10 05:24:35;;;;;;;8.77;4.13;;;;;;;3.59;52.95;95660.53;5073222;28;20190;-67
2024/01/10 05:27:02;;;;;;;4.00;3.57;;;;;;;3.46;53.00;95645.13;5072572;28;20289;-63
2024/01/10 05:29:29;;;;;;;4.57;3.77;;;;;;;3.59;52.93;95658.81;5072988;28;20186;-65
2024/01/10 05:31:56;;;;;;;5.57;3.80;;;;;;;3.63;52.87;95667.09;5072813;28;20684;-68
2024/01/10 05:34:24;;;;;;;4.30;3.80;;;;;;;3.64;53.13;95668.72;5073233;28;20670;-66
2024/01/10 05:36:51;;;;;;;5.27;3.67;;;;;;;3.55;52.90;95666.63;5072760;28;20194;-69
2024/01/10 05:39:20;;;;;;;6.27;3.53;;;;;;;3.52;52.67;95655.75;5072957;28;20194;-66
2024/01/10 05:41:47;;;;;;;5.20;3.90;;;;;;;3.62;52.67;95680.59;5072471;28;20194;-68
2024/01/10 05:44:14;;;;;;;5.10;4.00;;;;;;;3.45;52.67;95653.56;5073014;28;20190;-65
2024/01/10 05:46:41;;;;;;;5.67;3.70;;;;;;;3.48;52.63;95654.25;5072372;28;20222;-67
2024/01/10 05:49:10;;;;;;;7.00;4.40;;;;;;;3.60;52.64;95675.63;5072424;28;20255;-67
2024/01/10 05:51:38;;;;;;;5.67;4.37;;;;;;;2.91;52.91;95570.09;5072266;28;20198;-66
2024/01/10 05:54:05;;;;;;;5.67;4.23;;;;;;;3.60;52.47;95679.88;5073519;28;20241;-68
2024/01/10 05:56:32;;;;;;;4.27;3.63;;;;;;;3.57;52.71;95680.81;5072464;28;20190;-66
2024/01/10 05:58:59;;;;;;;6.67;3.67;;;;;;;3.61;52.70;95682.31;5072668;28;20209;-65
2024/01/10 06:01:25;;;;;;;4.83;4.27;;;;;;;3.62;52.53;95680.59;5072252;28;20732;-67
2024/01/10 06:03:52;;;;;;;6.57;4.40;;;;;;;3.61;52.57;95682.31;5072236;28;20828;-66
2024/01/10 06:06:19;;;;;;;5.60;3.90;;;;;;;3.63;52.40;95680.56;5072508;28;20214;-62
2024/01/10 06:08:47;;;;;;;5.83;4.10;;;;;;;3.74;52.70;95687.63;5072195;28;20198;-66
2024/01/10 06:11:14;;;;;;;4.87;4.30;;;;;;;3.82;54.84;95700.75;5072176;28;20727;-64
2024/01/10 06:13:41;;;;;;;5.40;3.93;;;;;;;3.86;57.81;95699.72;5072664;28;20589;-63
2024/01/10 06:16:08;;;;;;;5.03;4.33;;;;;;;3.89;57.99;95698.75;5072122;28;20194;-65
2024/01/10 06:18:35;;;;;;;5.50;4.00;;;;;;;3.85;57.62;95690.50;5071696;28;20186;-65
2024/01/10 06:21:02;;;;;;;5.80;4.43;;;;;;;2.88;57.08;95534.88;5072191;28;20283;-63
2024/01/10 06:23:29;;;;;;;8.63;4.77;;;;;;;3.90;56.57;95702.91;5072128;28;20198;-64
2024/01/10 06:25:57;;;;;;;7.53;3.97;;;;;;;3.92;56.10;95701.13;5072399;28;20233;-64
2024/01/10 06:28:24;;;;;;;6.57;4.07;;;;;;;3.93;55.94;95705.28;5079059;28;20194;-68
2024/01/10 06:30:52;;;;;;;8.43;4.67;;;;;;;3.94;55.51;95707.75;5076240;28;20638;-65
2024/01/10 06:33:19;;;;;;;6.17;4.30;;;;;;;3.94;55.14;95717.88;5072629;28;20605;-66
2024/01/10 06:35:46;;;;;;;6.80;4.60;;;;;;;3.96;54.85;95710.22;5072592;28;20213;-68
2024/01/10 06:38:13;;;;;;;6.53;4.87;;;;;;;3.96;54.59;95713.56;5072251;28;20182;-63
2024/01/10 06:40:40;;;;;;;11.37;5.13;;;;;;;3.83;54.29;95688.91;5073878;28;20637;-63
2024/01/10 06:43:09;;;;;;;12.50;5.10;;;;;;;3.93;54.15;95703.59;5071695;28;20550;-63
2024/01/10 06:45:36;;;;;;;10.90;5.87;;;;;;;3.98;53.90;95719.38;5071269;28;20195;-62
2024/01/10 06:48:03;;;;;;;9.53;5.87;;;;;;;3.94;53.58;95709.47;5073258;28;20189;-63
2024/01/10 06:50:30;;;;;;;11.23;6.20;;;;;;;4.00;53.43;95724.34;5077269;28;20198;-65
2024/01/10 06:52:57;;;;;;;10.00;6.43;;;;;;;4.00;53.25;95719.28;5081128;28;20187;-70
2024/01/10 06:55:24;;;;;;;12.37;7.07;;;;;;;4.02;52.95;95731.00;5080322;28;20190;-67
2024/01/10 06:57:52;;;;;;;10.10;6.90;;;;;;;3.98;52.70;95721.09;5072669;28;20218;-66
2024/01/10 07:00:21;;;;;;;11.03;7.37;;;;;;;4.07;52.70;95735.84;5071123;28;20186;-65
2024/01/10 07:02:48;;;;;;;10.33;6.70;;;;;;;4.07;52.44;95728.25;5072308;28;20244;-67
2024/01/10 07:05:15;;;;;;;8.63;6.50;;;;;;;4.18;52.09;95738.66;5073259;28;20269;-68
2024/01/10 07:07:43;;;;;;;8.30;6.20;;;;;;;4.25;51.93;95749.34;5079846;28;20222;-63
2024/01/10 07:10:11;;;;;;;12.63;6.93;;;;;;;4.31;51.85;95745.69;5081683;28;20286;-68
2024/01/10 07:12:38;;;;;;;9.20;5.23;;;;;;;4.18;51.62;95715.88;5071677;28;20221;-63
2024/01/10 07:15:06;;;;;;;8.50;6.17;;;;;;;4.42;51.26;95741.75;5064640;28;20190;-62
2024/01/10 07:17:34;;;;;;;8.87;6.10;;;;;;;4.51;51.24;95741.28;5067913;28;20560;-63
2024/01/10 07:20:01;;;;;;;9.37;6.00;;;;;;;4.65;51.23;95750.75;5069653;28;20197;-62
2024/01/10 07:22:28;;;;;;;10.13;5.47;;;;;;;4.73;51.02;95746.13;5069931;28;20186;-64
2024/01/10 07:24:54;;;;;;;10.23;5.97;;;;;;;4.78;50.75;95743.34;5069551;28;20198;-63
2024/01/10 07:27:21;;;;;;;8.60;5.97;;;;;;;4.93;50.62;95739.25;5069756;28;20324;-66
2024/01/10 07:29:48;;;;;;;8.43;6.37;;;;;;;5.04;50.41;95749.63;5069929;28;20260;-64
2024/01/10 07:32:15;;;;;;;11.00;5.80;;;;;;;5.22;50.17;95758.88;5069198;28;20194;-67
2024/01/10 07:34:44;;;;;;;6.93;5.23;;;;;;;5.15;50.46;95727.09;5069115;28;20194;-64
2024/01/10 07:37:11;;;;;;;9.97;5.47;;;;;;;5.43;49.91;95759.44;5070107;28;20190;-66
2024/01/10 07:39:38;;;;;;;7.60;5.10;;;;;;;5.61;49.59;95762.72;5071448;28;20190;-62
2024/01/10 07:42:14;;;;;;;6.30;4.87;;;;;;;5.65;49.37;95745.63;5071552;28;20194;-64
2024/01/10 07:44:40;;;;;;;8.23;5.10;;;;;;;5.90;49.32;95767.97;5067603;28;20194;-66
2024/01/10 07:47:07;;;;;;;7.27;4.80;;;;;;;6.12;49.04;95767.66;5069278;28;20777;-62
2024/01/10 07:49:35;;;;;;;4.90;4.30;;;;;;;6.16;48.91;95749.63;5069397;28;20187;-64
2024/01/10 07:52:04;;;;;;;7.13;4.70;;;;;;;6.41;48.57;95771.13;5069895;28;20222;-62
2024/01/10 07:54:32;;;;;;;6.33;4.07;;;;;;;6.54;48.57;95761.91;5069471;28;20244;-65
2024/01/10 07:56:59;;;;;;;6.63;4.47;;;;;;;6.67;48.31;95762.03;5069228;28;20243;-69
2024/01/10 07:59:26;;;;;;;11.07;5.00;;;;;;;6.79;48.20;95774.88;5068763;28;20194;-64
2024/01/10 08:01:58;;;;;;;6.37;4.70;;;;;;;6.89;47.67;95772.59;5069322;28;20198;-66
2024/01/10 08:04:25;;;;;;;7.53;4.67;;;;;;;6.97;47.53;95762.00;5069484;28;20218;-69
2024/01/10 08:06:55;;;;;;;6.97;4.40;;;;;;;7.01;47.20;95764.28;5069001;28;20218;-66
2024/01/10 08:09:24;;;;;;;5.63;3.90;;;;;;;7.12;47.10;95768.72;5069005;28;20233;-66
2024/01/10 08:11:51;;;;;;;9.07;4.50;;;;;;;7.18;46.89;95767.56;5068578;28;20580;-63
2024/01/10 08:14:18;;;;;;;6.83;4.90;;;;;;;6.91;46.84;95722.50;5068936;28;20187;-64
2024/01/10 08:16:45;;;;;;;7.40;4.63;;;;;;;7.13;46.67;95744.13;5069847;28;20186;-66
2024/01/10 08:19:12;;;;;;;6.50;4.63;;;;;;;7.44;46.88;95778.72;5070278;28;20261;-62
2024/01/10 08:21:39;;;;;;;7.43;4.50;;;;;;;7.51;46.77;95775.75;5069210;28;20735;-63
2024/01/10 08:24:07;;;;;;;8.73;4.30;;;;;;;7.51;46.45;95757.06;5069260;28;20592;-61
2024/01/10 08:26:35;;;;;;;7.23;4.40;;;;;;;7.65;46.28;95774.09;5068538;28;20206;-61
2024/01/10 08:29:02;;;;;;;6.43;4.43;;;;;;;7.74;46.47;95779.44;5069096;28;20197;-63
2024/01/10 08:31:29;;;;;;;7.37;4.87;;;;;;;7.76;46.06;95771.69;5068723;28;20194;-61
2024/01/10 08:33:56;;;;;;;6.60;4.53;;;;;;;7.79;45.99;95767.22;5069613;28;20547;-66
2024/01/10 08:36:24;;;;;;;6.03;4.43;;;;;;;7.93;46.02;95784.19;5069057;28;20198;-64
2024/01/10 08:38:51;;;;;;;5.47;3.93;;;;;;;8.00;45.81;95775.28;5069283;28;20182;-67
2024/01/10 08:41:19;;;;;;;5.53;4.20;;;;;;;8.11;45.36;95779.69;5068683;28;20539;-68
2024/01/10 08:43:47;;;;;;;8.00;4.23;;;;;;;8.21;45.51;95779.94;5069118;28;20565;-65
2024/01/10 08:46:14;;;;;;;4.77;4.27;;;;;;;8.13;45.27;95772.78;5069158;28;20202;-68
2024/01/10 08:48:41;;;;;;;6.43;4.53;;;;;;;8.19;45.10;95785.13;5068065;28;20183;-68
2024/01/10 08:51:09;;;;;;;5.03;3.77;;;;;;;8.21;44.95;95779.94;5068756;28;20179;-64
2024/01/10 08:53:36;;;;;;;4.50;3.97;;;;;;;8.42;44.53;95767.59;5069124;28;20198;-66
2024/01/10 08:56:03;;;;;;;5.40;3.87;;;;;;;8.37;44.12;95746.69;5069237;28;20182;-62
2024/01/10 08:58:30;;;;;;;7.07;4.80;;;;;;;8.51;43.93;95784.88;5072734;28;20204;-67
2024/01/10 09:00:58;;;;;;;7.13;4.20;;;;;;;8.43;43.89;95782.00;5072323;28;20221;-63
2024/01/10 09:03:24;;;;;;;5.80;4.60;;;;;;;8.35;44.03;95776.53;5073303;28;20178;-64
2024/01/10 09:05:51;;;;;;;8.50;4.10;;;;;;;8.25;43.96;95768.66;5072463;28;20205;-67
2024/01/10 09:08:18;;;;;;;5.83;4.00;;;;;;;8.00;43.87;95737.06;5072641;28;20576;-65
2024/01/10 09:10:45;;;;;;;7.53;4.37;;;;;;;8.17;43.95;95770.88;5072574;28;20233;-62
2024/01/10 09:13:12;;;;;;;5.87;4.57;;;;;;;8.14;43.98;95778.69;5072827;28;20205;-62
2024/01/10 09:15:38;;;;;;;6.20;4.70;;;;;;;8.10;44.13;95774.69;5073034;28;20178;-65
2024/01/10 09:18:07;;;;;;;5.27;4.20;;;;;;;7.88;43.91;95742.09;5072644;28;20646;-63
2024/01/10 09:20:33;;;;;;;5.30;4.53;;;;;;;8.01;44.02;95768.44;5073451;28;20292;-67
2024/01/10 09:23:00;;;;;;;5.97;4.57;;;;;;;7.98;44.06;95768.63;5072233;28;20204;-67
2024/01/10 09:25:27;;;;;;;7.43;4.60;;;;;;;7.95;44.08;95764.56;5074043;28;20191;-68
2024/01/10 09:27:54;;;;;;;6.27;4.47;;;;;;;7.92;44.01;95774.94;5072819;28;20663;-67
2024/01/10 09:30:21;;;;;;;5.83;4.20;;;;;;;7.89;43.90;95770.00;5074437;28;20197;-67
2024/01/10 09:32:48;;;;;;;4.30;3.80;;;;;;;7.87;44.19;95768.50;5082225;28;20186;-70
2024/01/10 09:35:17;;;;;;;6.37;4.50;;;;;;;7.86;44.23;95766.84;5086259;28;20182;-67
2024/01/10 09:37:45;;;;;;;6.20;4.70;;;;;;;7.80;44.37;95757.84;5073804;28;20248;-68
2024/01/10 09:40:16;;;;;;;5.67;4.40;;;;;;;7.75;44.42;95749.69;5075100;28;20193;-69
2024/01/10 09:42:44;;;;;;;8.50;4.40;;;;;;;7.83;44.43;95760.22;5074748;28;20226;-66
2024/01/10 09:45:12;;;;;;;6.27;3.90;;;;;;;7.83;44.23;95761.94;5080477;28;20190;-68
2024/01/10 09:47:42;;;;;;;7.23;4.57;;;;;;;7.83;44.61;95757.69;5075189;28;20597;-68
2024/01/10 09:50:10;;;;;;;8.27;4.70;;;;;;;7.83;44.49;95759.41;5071462;28;20198;-67
2024/01/10 09:52:47;;;;;;;5.60;4.63;;;;;;;7.83;44.62;95761.94;5071120;28;20197;-66
2024/01/10 09:55:16;;;;;;;6.90;4.43;;;;;;;7.79;44.79;95746.03;5071650;28;20193;-66
2024/01/10 09:57:43;;;;;;;5.00;4.30;;;;;;;7.70;44.79;95739.78;5066919;28;20650;-66
2024/01/10 10:00:12;;;;;;;7.17;5.17;;;;;;;7.83;44.19;95759.41;5068111;28;20198;-68
2024/01/10 10:02:40;;;;;;;6.57;5.10;;;;;;;7.82;44.32;95747.59;5070858;28;20283;-62
2024/01/10 10:05:13;;;;;;;6.10;4.90;;;;;;;7.84;44.40;95740.66;5072128;28;20183;-65
2024/01/10 10:07:49;;;;;;;6.70;5.60;;;;;;;7.71;44.40;95712.59;5068274;28;20244;-67
2024/01/10 10:10:16;;;;;;;8.30;5.50;;;;;;;7.86;44.72;95742.22;5069093;28;20190;-68
2024/01/10 10:12:43;;;;;;;10.77;5.97;;;;;;;7.89;44.41;95733.53;5068418;28;20323;-63
2024/01/10 10:15:13;;;;;;;10.20;5.60;;;;;;;7.90;44.42;95730.94;5068715;28;20194;-65
2024/01/10 10:17:46;;;;;;;7.87;5.67;;;;;;;7.92;44.21;95721.44;5068570;28;20275;-69
2024/01/10 10:20:14;;;;;;;7.00;4.80;;;;;;;7.80;44.06;95695.00;5068062;28;20202;-64
2024/01/10 10:22:51;;;;;;;10.53;5.13;;;;;;;7.87;44.26;95702.28;5068217;28;20190;-65
2024/01/10 10:25:19;;;;;;;7.63;5.03;;;;;;;8.00;44.46;95714.13;5069228;28;20189;-62
2024/01/10 10:27:46;;;;;;;11.10;5.70;;;;;;;8.05;44.36;95707.03;5070549;28;20232;-65
2024/01/10 10:30:13;;;;;;;6.97;5.30;;;;;;;7.93;44.32;95681.50;5071167;28;20220;-68
2024/01/10 10:32:40;;;;;;;8.17;4.80;;;;;;;8.12;44.39;95686.25;5071144;28;20198;-68
2024/01/10 10:35:08;;;;;;;6.33;5.13;;;;;;;8.20;44.39;95695.06;5071090;28;20679;-70
2024/01/10 10:37:35;;;;;;;9.23;4.83;;;;;;;8.24;44.30;95685.44;5071463;28;20187;-67
2024/01/10 10:40:02;;;;;;;8.97;5.17;;;;;;;8.27;44.05;95677.63;5070900;28;20187;-69
2024/01/10 10:42:32;;;;;;;9.03;5.40;;;;;;;8.18;44.27;95663.75;5070574;28;20205;-69
2024/01/10 10:45:04;;;;;;;7.23;5.13;;;;;;;8.35;44.14;95667.75;5069208;28;20216;-63
2024/01/10 10:47:35;;;;;;;8.30;5.47;;;;;;;8.44;44.10;95676.56;5070502;28;20222;-67
2024/01/10 10:50:05;;;;;;;7.07;4.97;;;;;;;8.49;44.17;95679.63;5071458;28;20226;-64
2024/01/10 10:52:33;;;;;;;6.87;5.33;;;;;;;8.52;44.17;95666.69;5075991;28;20201;-67
2024/01/10 10:55:00;;;;;;;7.60;5.37;;;;;;;8.38;44.04;95638.75;5085363;28;20182;-67
2024/01/10 10:58:31;;;;;;;9.50;5.73;;;;;;;8.60;43.97;95661.09;5183823;22;20647;-64
2024/01/10 11:01:28;;;;;;;11.10;5.70;;;;;;;8.63;43.88;95660.84;5033267;28;20631;-62
2024/01/10 11:03:57;;;;;;;8.57;5.30;;;;;;;8.66;43.92;95656.38;5032807;28;20238;-68
2024/01/10 11:06:24;;;;;;;7.93;5.37;;;;;;;8.70;43.78;95651.88;5034261;28;20206;-68
2024/01/10 11:08:56;;;;;;;12.33;6.03;;;;;;;8.73;43.85;95646.59;5030463;28;20224;-61
2024/01/10 11:11:36;;;;;;;6.93;5.80;;;;;;;8.78;43.91;95653.00;5032587;28;20285;-61
2024/01/10 11:14:15;;;;;;;9.27;6.73;;;;;;;8.78;43.89;95647.91;5034522;28;20626;-62
2024/01/10 11:17:18;;;;;;;7.73;5.77;;;;;;;8.82;43.83;95647.72;5030038;28;20222;-62
2024/01/10 11:20:05;;;;;;;8.50;5.40;;;;;;;8.83;43.79;95644.22;5002053;28;20230;-62
2024/01/10 11:22:47;;;;;;;8.43;5.27;;;;;;;8.56;43.83;95590.81;5006710;28;20196;-63
2024/01/10 11:25:14;;;;;;;6.63;5.40;;;;;;;8.85;43.83;95639.81;5006864;28;20206;-64
2024/01/10 11:27:41;;;;;;;7.80;5.13;;;;;;;8.87;43.74;95635.47;5007419;28;20239;-66
2024/01/10 11:30:09;;;;;;;8.37;5.50;;;;;;;8.88;43.82;95627.69;5007612;28;20310;-61
2024/01/10 11:32:38;;;;;;;6.63;5.10;;;;;;;8.90;43.96;95623.31;5007364;28;20730;-65
2024/01/10 11:38:29;;;;;;;7.60;5.60;;;;;;;8.92;44.04;95621.47;5011807;28;20198;-62
2024/01/10 11:44:30;;;;;;;11.33;5.60;;;;;;;8.92;43.90;95607.88;5007189;28;20204;-68
2024/01/10 11:46:58;;;;;;;8.77;5.60;;;;;;;8.89;44.00;95606.34;5008369;28;20265;-66
2024/01/10 11:49:27;;;;;;;8.43;4.90;;;;;;;8.93;43.87;95604.41;5007845;28;20712;-69
2024/01/10 11:51:56;;;;;;;6.77;5.10;;;;;;;8.94;43.84;95604.34;5008629;28;20200;-68